Grenchen Airport LSZG

Flugplatz Daten

Name: Grenchen Airport

Ident: LSZG

Lat: 47,18159866

Long: 7,417190075

Platzhöhe: 1411 ft

IataCode: ZHI

City:

Metar

2021/08/02 09:20
LSZG 020920Z VRB02KT 9999 FEW025 17/11 Q1018 NOSIG

Taf

Gewünschte Webcam nicht vorhanden? Dann fügen Sie eine hinzu. Sie wird dann so schnell wie möglich freigeschaltet
Url: Title: